createdAt,value
2022-12-25T00:00:06.991Z,4.30
2022-12-25T00:02:34.137Z,4.20
2022-12-25T00:05:01.418Z,4.40
2022-12-25T00:07:28.383Z,4.40
2022-12-25T00:09:58.152Z,4.40
2022-12-25T00:12:25.238Z,4.40
2022-12-25T00:14:52.277Z,4.50
2022-12-25T00:17:19.363Z,4.50
2022-12-25T00:19:46.445Z,4.50
2022-12-25T00:22:13.575Z,4.40
2022-12-25T00:24:40.678Z,4.40
2022-12-25T00:27:07.866Z,4.40
2022-12-25T00:29:35.674Z,4.50
2022-12-25T00:32:02.987Z,4.50
2022-12-25T00:34:30.076Z,4.50
2022-12-25T00:36:57.306Z,4.40
2022-12-25T00:39:24.564Z,4.40
2022-12-25T00:42:10.447Z,4.40
2022-12-25T00:44:37.423Z,4.40
2022-12-25T00:47:05.077Z,4.40
2022-12-25T00:49:34.925Z,4.30
2022-12-25T00:52:02.015Z,4.50
2022-12-25T00:54:29.083Z,4.50
2022-12-25T00:56:56.238Z,4.60
2022-12-25T00:59:23.370Z,4.70
2022-12-25T01:01:50.761Z,4.80
2022-12-25T01:04:18.295Z,5.00
2022-12-25T01:06:45.421Z,5.10
2022-12-25T01:09:31.026Z,5.20
2022-12-25T01:12:00.607Z,5.30
2022-12-25T01:14:27.749Z,5.40
2022-12-25T01:16:54.891Z,5.40
2022-12-25T01:19:22.202Z,5.40
2022-12-25T01:21:49.334Z,5.40
2022-12-25T01:24:16.627Z,5.50
2022-12-25T01:26:43.723Z,5.50
2022-12-25T01:29:10.781Z,5.50
2022-12-25T01:31:37.952Z,5.50
2022-12-25T01:34:04.971Z,5.50
2022-12-25T01:36:32.467Z,5.50
2022-12-25T01:39:00.130Z,5.50
2022-12-25T01:41:27.245Z,5.50
2022-12-25T01:44:15.752Z,5.50
2022-12-25T01:46:43.981Z,5.50
2022-12-25T01:49:14.077Z,5.50
2022-12-25T01:51:59.531Z,5.50
2022-12-25T01:54:37.723Z,5.50
2022-12-25T01:57:09.942Z,5.50
2022-12-25T01:59:37.039Z,5.50
2022-12-25T02:02:04.595Z,5.50
2022-12-25T02:04:40.251Z,5.50
2022-12-25T02:07:20.095Z,5.50
2022-12-25T02:09:48.279Z,5.50
2022-12-25T02:12:26.863Z,5.50
2022-12-25T02:15:05.031Z,5.50
2022-12-25T02:17:59.127Z,5.50
2022-12-25T02:20:43.981Z,5.40
2022-12-25T02:23:46.879Z,5.40
2022-12-25T02:26:28.029Z,5.40
2022-12-25T02:29:01.757Z,5.50
2022-12-25T02:31:44.827Z,5.50
2022-12-25T02:34:26.244Z,5.50
2022-12-25T02:37:24.281Z,5.50
2022-12-25T02:40:09.482Z,5.60
2022-12-25T02:43:16.077Z,5.60
2022-12-25T02:46:14.718Z,5.70
2022-12-25T02:49:09.486Z,5.80
2022-12-25T02:52:01.139Z,5.90
2022-12-25T02:54:55.788Z,5.90
2022-12-25T02:57:46.829Z,5.90
2022-12-25T03:00:33.225Z,6.00
2022-12-25T03:03:21.359Z,6.10
2022-12-25T03:06:08.764Z,6.10
2022-12-25T03:08:40.930Z,6.20
2022-12-25T03:11:46.904Z,6.20
2022-12-25T03:14:32.793Z,6.30
2022-12-25T03:17:01.194Z,6.30
2022-12-25T03:19:52.815Z,6.30
2022-12-25T03:22:46.617Z,6.40
2022-12-25T03:25:33.445Z,6.40
2022-12-25T03:28:01.058Z,6.50
2022-12-25T03:31:12.097Z,6.40
2022-12-25T03:34:22.547Z,6.40
2022-12-25T03:37:09.221Z,6.50
2022-12-25T03:40:44.728Z,6.50
2022-12-25T03:44:04.011Z,6.50
2022-12-25T03:47:11.206Z,6.60
2022-12-25T03:50:15.057Z,6.60
2022-12-25T03:53:03.044Z,6.60
2022-12-25T03:55:50.007Z,6.70
2022-12-25T03:58:43.556Z,6.70
2022-12-25T04:01:29.269Z,6.70
2022-12-25T04:04:15.011Z,6.70
2022-12-25T04:07:01.057Z,6.70
2022-12-25T04:09:47.077Z,6.80
2022-12-25T04:12:32.449Z,6.70
2022-12-25T04:15:18.012Z,6.80
2022-12-25T04:18:03.424Z,6.80
2022-12-25T04:20:49.032Z,6.90
2022-12-25T04:23:34.633Z,6.90
2022-12-25T04:26:20.184Z,6.90
2022-12-25T04:29:05.741Z,7.00
2022-12-25T04:31:53.807Z,7.00
2022-12-25T04:34:39.510Z,7.10
2022-12-25T04:37:06.545Z,7.10
2022-12-25T04:39:33.704Z,7.20
2022-12-25T04:42:01.124Z,7.20
2022-12-25T04:44:28.431Z,7.20
2022-12-25T04:46:55.928Z,7.20
2022-12-25T04:49:23.154Z,7.20
2022-12-25T04:51:50.378Z,7.30
2022-12-25T04:54:17.622Z,7.30
2022-12-25T04:56:45.989Z,7.30
2022-12-25T04:59:13.551Z,7.30
2022-12-25T05:01:40.793Z,7.30
2022-12-25T05:04:08.018Z,7.40
2022-12-25T05:06:35.067Z,7.40
2022-12-25T05:09:02.117Z,7.40
2022-12-25T05:11:29.250Z,7.50
2022-12-25T05:13:57.841Z,7.50
2022-12-25T05:16:26.410Z,7.50
2022-12-25T05:18:53.717Z,7.50
2022-12-25T05:21:20.995Z,7.50
2022-12-25T05:23:52.620Z,7.60
2022-12-25T05:26:23.360Z,7.60
2022-12-25T05:28:51.052Z,7.60
2022-12-25T05:31:19.368Z,7.60
2022-12-25T05:33:50.218Z,7.70
2022-12-25T05:36:17.882Z,7.70
2022-12-25T05:38:44.933Z,7.70
2022-12-25T05:41:12.169Z,7.70
2022-12-25T05:43:39.297Z,7.70
2022-12-25T05:46:09.054Z,7.80
2022-12-25T05:48:38.132Z,7.80
2022-12-25T05:51:14.192Z,7.80
2022-12-25T05:53:43.160Z,7.90
2022-12-25T05:56:11.104Z,8.00
2022-12-25T05:58:40.467Z,8.00
2022-12-25T06:01:20.842Z,8.00
2022-12-25T06:03:48.448Z,8.00
2022-12-25T06:06:15.708Z,8.00
2022-12-25T06:08:43.038Z,8.10
2022-12-25T06:11:12.846Z,8.00
2022-12-25T06:13:40.232Z,8.10
2022-12-25T06:16:11.055Z,8.10
2022-12-25T06:18:46.766Z,8.10
2022-12-25T06:21:15.587Z,8.10
2022-12-25T06:23:43.671Z,8.10
2022-12-25T06:26:16.742Z,8.10
2022-12-25T06:28:44.833Z,8.10
2022-12-25T06:31:19.455Z,8.10
2022-12-25T06:33:47.348Z,8.10
2022-12-25T06:36:20.834Z,8.10
2022-12-25T06:38:48.591Z,8.10
2022-12-25T06:41:27.097Z,8.10
2022-12-25T06:43:57.387Z,8.10
2022-12-25T06:46:27.769Z,8.10
2022-12-25T06:48:54.901Z,8.10
2022-12-25T06:51:26.305Z,8.10
2022-12-25T06:53:55.275Z,8.10
2022-12-25T06:56:26.907Z,8.10
2022-12-25T06:59:01.766Z,8.00
2022-12-25T07:01:54.402Z,8.00
2022-12-25T07:04:28.522Z,8.00
2022-12-25T07:06:55.697Z,8.00
2022-12-25T07:09:22.858Z,8.10
2022-12-25T07:11:49.861Z,8.10
2022-12-25T07:14:24.444Z,8.10
2022-12-25T07:16:51.851Z,8.10
2022-12-25T07:19:19.419Z,8.10
2022-12-25T07:21:47.293Z,8.10
2022-12-25T07:24:22.437Z,8.10
2022-12-25T07:26:50.823Z,8.10
2022-12-25T07:29:19.566Z,8.10
2022-12-25T07:31:47.760Z,8.10
2022-12-25T07:34:17.152Z,8.10
2022-12-25T07:36:44.264Z,8.10
2022-12-25T07:39:11.945Z,8.10
2022-12-25T07:41:39.135Z,8.10
2022-12-25T07:44:16.033Z,8.10
2022-12-25T07:46:43.469Z,8.00
2022-12-25T07:49:11.297Z,8.10
2022-12-25T07:51:38.680Z,8.00
2022-12-25T07:54:05.938Z,8.00
2022-12-25T07:56:33.170Z,8.00
2022-12-25T07:59:00.328Z,8.00
2022-12-25T08:01:28.727Z,8.00
2022-12-25T08:04:02.049Z,8.00
2022-12-25T08:06:33.284Z,8.00
2022-12-25T08:09:08.300Z,8.00
2022-12-25T08:11:36.723Z,8.10
2022-12-25T08:14:07.011Z,8.10
2022-12-25T08:16:34.654Z,8.00
2022-12-25T08:19:02.056Z,8.10
2022-12-25T08:21:29.079Z,8.10
2022-12-25T08:23:56.348Z,8.10
2022-12-25T08:26:24.486Z,8.10
2022-12-25T08:28:51.990Z,8.10
2022-12-25T08:31:28.255Z,8.10
2022-12-25T08:33:58.418Z,8.10
2022-12-25T08:36:26.769Z,8.10
2022-12-25T08:39:00.393Z,8.10
2022-12-25T08:41:30.259Z,8.10
2022-12-25T08:43:57.633Z,8.10
2022-12-25T08:46:25.101Z,8.10
2022-12-25T08:48:52.328Z,8.10
2022-12-25T08:51:21.959Z,8.10
2022-12-25T08:53:51.900Z,8.10
2022-12-25T08:56:20.352Z,8.10
2022-12-25T08:58:47.427Z,8.10
2022-12-25T09:01:14.727Z,8.10
2022-12-25T09:03:43.053Z,8.10
2022-12-25T09:06:16.281Z,8.20
2022-12-25T09:08:49.162Z,8.20
2022-12-25T09:11:19.007Z,8.20
2022-12-25T09:13:46.314Z,8.20
2022-12-25T09:16:19.117Z,8.20
2022-12-25T09:18:46.497Z,8.20
2022-12-25T09:21:16.117Z,8.20
2022-12-25T09:23:43.698Z,8.30
2022-12-25T09:26:14.193Z,8.30
2022-12-25T09:28:50.190Z,8.30
2022-12-25T09:31:18.567Z,8.30
2022-12-25T09:33:45.748Z,8.30
2022-12-25T09:36:12.822Z,8.40
2022-12-25T09:38:39.933Z,8.40
2022-12-25T09:41:28.339Z,8.40
2022-12-25T09:44:08.469Z,8.40
2022-12-25T09:47:40.255Z,8.50
2022-12-25T09:50:39.840Z,8.50
2022-12-25T09:53:25.133Z,8.50
2022-12-25T09:56:22.286Z,8.50
2022-12-25T09:58:49.306Z,8.50
2022-12-25T10:02:15.256Z,8.50
2022-12-25T10:05:06.141Z,8.50
2022-12-25T10:08:07.185Z,8.60
2022-12-25T10:11:03.041Z,8.60
2022-12-25T10:14:09.298Z,8.60
2022-12-25T10:17:13.185Z,8.60
2022-12-25T10:20:24.682Z,8.60
2022-12-25T10:22:59.571Z,8.60
2022-12-25T10:25:26.745Z,8.60
2022-12-25T10:28:03.196Z,8.70
2022-12-25T10:30:31.472Z,8.70
2022-12-25T10:32:59.093Z,8.70
2022-12-25T10:35:29.225Z,8.70
2022-12-25T10:38:06.400Z,8.80
2022-12-25T10:40:52.083Z,8.80
2022-12-25T10:43:30.752Z,8.80
2022-12-25T10:45:59.459Z,8.80
2022-12-25T10:48:29.587Z,8.80
2022-12-25T10:50:57.052Z,8.80
2022-12-25T10:53:29.437Z,8.80
2022-12-25T10:56:01.763Z,8.80
2022-12-25T10:58:33.454Z,8.90
2022-12-25T11:01:05.309Z,8.90
2022-12-25T11:03:36.088Z,8.90
2022-12-25T11:06:03.842Z,9.00
2022-12-25T11:08:33.574Z,9.00
2022-12-25T11:11:06.305Z,9.00
2022-12-25T11:13:49.389Z,9.00
2022-12-25T11:16:38.314Z,9.00
2022-12-25T11:19:29.135Z,9.10
2022-12-25T11:22:00.484Z,9.00
2022-12-25T11:24:34.739Z,9.10
2022-12-25T11:27:08.870Z,9.10
2022-12-25T11:29:53.213Z,9.10
2022-12-25T11:32:34.573Z,9.10
2022-12-25T11:35:02.819Z,9.10
2022-12-25T11:37:43.491Z,9.10
2022-12-25T11:40:23.392Z,9.10
2022-12-25T11:43:04.093Z,9.20
2022-12-25T11:45:40.507Z,9.30
2022-12-25T11:48:22.233Z,9.30
2022-12-25T11:50:59.649Z,9.30
2022-12-25T11:53:52.755Z,9.30
2022-12-25T11:56:26.678Z,9.40
2022-12-25T11:59:01.134Z,9.40
2022-12-25T12:01:37.955Z,9.30
2022-12-25T12:04:17.421Z,9.30
2022-12-25T12:06:51.192Z,9.30
2022-12-25T12:09:40.000Z,9.30
2022-12-25T12:12:22.059Z,9.30
2022-12-25T12:15:28.799Z,9.30
2022-12-25T12:18:21.008Z,9.30
2022-12-25T12:21:20.898Z,9.30
2022-12-25T12:24:19.309Z,9.30
2022-12-25T12:27:00.052Z,9.30
2022-12-25T12:29:42.578Z,9.30
2022-12-25T12:32:41.825Z,9.30
2022-12-25T12:35:21.786Z,9.30
2022-12-25T12:37:56.217Z,9.30
2022-12-25T12:40:38.451Z,9.30
2022-12-25T12:43:19.897Z,9.30
2022-12-25T12:45:56.960Z,9.30
2022-12-25T12:48:29.446Z,9.30
2022-12-25T12:51:09.609Z,9.30
2022-12-25T12:53:40.360Z,9.30
2022-12-25T12:56:18.941Z,9.30
2022-12-25T12:58:50.968Z,9.30
2022-12-25T13:01:28.070Z,9.30
2022-12-25T13:04:39.900Z,9.30
2022-12-25T13:07:43.971Z,9.30
2022-12-25T13:10:41.828Z,9.30
2022-12-25T13:13:24.950Z,9.30
2022-12-25T13:15:52.611Z,9.30
2022-12-25T13:18:20.591Z,9.20
2022-12-25T13:21:18.871Z,9.30
2022-12-25T13:23:46.174Z,9.20
2022-12-25T13:26:17.087Z,9.20
2022-12-25T13:28:47.292Z,9.20
2022-12-25T13:31:19.614Z,9.20
2022-12-25T13:34:06.001Z,9.20
2022-12-25T13:36:40.055Z,9.20
2022-12-25T13:39:16.355Z,9.20
2022-12-25T13:42:10.091Z,9.20
2022-12-25T13:44:52.433Z,9.20
2022-12-25T13:47:53.082Z,9.10
2022-12-25T13:50:30.601Z,9.10
2022-12-25T13:53:12.156Z,9.10
2022-12-25T13:55:40.200Z,9.10
2022-12-25T13:58:30.981Z,9.10
2022-12-25T14:01:00.801Z,9.10
2022-12-25T14:03:42.607Z,9.00
2022-12-25T14:06:28.159Z,9.00
2022-12-25T14:08:58.719Z,9.00
2022-12-25T14:11:33.418Z,9.00
2022-12-25T14:14:08.239Z,9.00
2022-12-25T14:16:35.662Z,8.90
2022-12-25T14:19:03.695Z,8.90
2022-12-25T14:21:49.325Z,8.90
2022-12-25T14:24:17.386Z,8.90
2022-12-25T14:26:44.633Z,8.90
2022-12-25T14:29:18.069Z,8.90
2022-12-25T14:31:47.639Z,8.90
2022-12-25T14:34:20.269Z,8.90
2022-12-25T14:36:48.683Z,8.90
2022-12-25T14:39:33.218Z,8.90
2022-12-25T14:42:23.407Z,8.90
2022-12-25T14:45:28.039Z,8.90
2022-12-25T14:47:59.059Z,8.90
2022-12-25T14:50:26.246Z,8.90
2022-12-25T14:52:54.072Z,8.90
2022-12-25T14:55:25.430Z,8.90
2022-12-25T14:58:07.756Z,8.90
2022-12-25T15:00:39.645Z,8.80
2022-12-25T15:03:20.944Z,8.80
2022-12-25T15:06:01.312Z,8.80
2022-12-25T15:08:30.946Z,8.80
2022-12-25T15:11:02.850Z,8.80
2022-12-25T15:13:31.887Z,8.80
2022-12-25T15:16:16.008Z,8.80
2022-12-25T15:18:45.925Z,8.80
2022-12-25T15:21:23.206Z,8.80
2022-12-25T15:23:50.376Z,8.80
2022-12-25T15:26:17.546Z,8.70
2022-12-25T15:28:44.740Z,8.80
2022-12-25T15:31:27.483Z,8.80
2022-12-25T15:34:01.343Z,8.80
2022-12-25T15:36:29.128Z,8.80
2022-12-25T15:38:56.696Z,8.80
2022-12-25T15:41:54.948Z,8.80
2022-12-25T15:44:22.580Z,8.80
2022-12-25T15:46:49.997Z,8.80
2022-12-25T15:49:17.600Z,8.80
2022-12-25T15:51:45.658Z,8.80
2022-12-25T15:54:13.053Z,8.80
2022-12-25T15:56:51.224Z,8.70
2022-12-25T15:59:20.481Z,8.80
2022-12-25T16:01:51.500Z,8.80
2022-12-25T16:04:20.361Z,8.80
2022-12-25T16:06:48.193Z,8.70
2022-12-25T16:09:22.580Z,8.70
2022-12-25T16:11:50.263Z,8.70
2022-12-25T16:14:19.477Z,8.70
2022-12-25T16:16:46.614Z,8.70
2022-12-25T16:19:13.934Z,8.70
2022-12-25T16:21:46.451Z,8.70
2022-12-25T16:24:14.407Z,8.70
2022-12-25T16:26:43.223Z,8.70
2022-12-25T16:29:10.726Z,8.70
2022-12-25T16:31:38.940Z,8.70
2022-12-25T16:34:07.549Z,8.70
2022-12-25T16:36:35.773Z,8.70
2022-12-25T16:39:04.242Z,8.70
2022-12-25T16:41:32.754Z,8.70
2022-12-25T16:44:09.284Z,8.70
2022-12-25T16:46:37.821Z,8.70
2022-12-25T16:49:05.094Z,8.70
2022-12-25T16:51:35.687Z,8.70
2022-12-25T16:54:02.974Z,8.70
2022-12-25T16:56:30.893Z,8.70
2022-12-25T16:58:58.878Z,8.70
2022-12-25T17:01:26.198Z,8.70
2022-12-25T17:03:53.559Z,8.70
2022-12-25T17:06:25.563Z,8.70
2022-12-25T17:08:57.002Z,8.70
2022-12-25T17:11:27.411Z,8.70
2022-12-25T17:13:55.402Z,8.70
2022-12-25T17:16:26.666Z,8.70
2022-12-25T17:19:04.259Z,8.70
2022-12-25T17:21:35.133Z,8.70
2022-12-25T17:24:04.156Z,8.70
2022-12-25T17:26:33.056Z,8.60
2022-12-25T17:29:01.121Z,8.70
2022-12-25T17:31:29.368Z,8.60
2022-12-25T17:33:56.694Z,8.70
2022-12-25T17:36:23.909Z,8.60
2022-12-25T17:38:51.178Z,8.70
2022-12-25T17:41:20.115Z,8.60
2022-12-25T17:43:48.302Z,8.60
2022-12-25T17:46:22.471Z,8.60
2022-12-25T17:48:51.132Z,8.60
2022-12-25T17:51:23.688Z,8.60
2022-12-25T17:53:54.619Z,8.60
2022-12-25T17:56:23.314Z,8.60
2022-12-25T17:58:53.414Z,8.60
2022-12-25T18:01:22.287Z,8.60
2022-12-25T18:03:50.120Z,8.60
2022-12-25T18:06:21.481Z,8.60
2022-12-25T18:08:49.655Z,8.60
2022-12-25T18:11:21.235Z,8.60
2022-12-25T18:13:52.230Z,8.60
2022-12-25T18:16:22.445Z,8.60
2022-12-25T18:18:52.558Z,8.60
2022-12-25T18:21:22.234Z,8.60
2022-12-25T18:23:50.267Z,8.60
2022-12-25T18:26:18.704Z,8.60
2022-12-25T18:28:46.311Z,8.60
2022-12-25T18:31:18.102Z,8.60
2022-12-25T18:33:46.040Z,8.60
2022-12-25T18:36:15.588Z,8.60
2022-12-25T18:38:43.387Z,8.60
2022-12-25T18:41:11.948Z,8.70
2022-12-25T18:43:52.361Z,8.70
2022-12-25T18:46:26.369Z,8.70
2022-12-25T18:48:56.088Z,8.70
2022-12-25T18:51:23.608Z,8.70
2022-12-25T18:53:51.264Z,8.70
2022-12-25T18:56:20.545Z,8.70
2022-12-25T18:58:47.997Z,8.70
2022-12-25T19:01:22.536Z,8.60
2022-12-25T19:03:52.587Z,8.60
2022-12-25T19:06:27.536Z,8.60
2022-12-25T19:08:55.855Z,8.60
2022-12-25T19:11:23.537Z,8.60
2022-12-25T19:13:50.848Z,8.60
2022-12-25T19:16:18.784Z,8.60
2022-12-25T19:18:47.386Z,8.60
2022-12-25T19:21:16.106Z,8.60
2022-12-25T19:23:43.393Z,8.60
2022-12-25T19:26:12.010Z,8.50
2022-12-25T19:28:40.119Z,8.50
2022-12-25T19:31:09.188Z,8.50
2022-12-25T19:33:41.221Z,8.50
2022-12-25T19:36:12.521Z,8.50
2022-12-25T19:38:40.208Z,8.50
2022-12-25T19:41:16.693Z,8.60
2022-12-25T19:43:50.151Z,8.50
2022-12-25T19:46:21.244Z,8.60
2022-12-25T19:48:49.157Z,8.60
2022-12-25T19:51:36.570Z,8.60
2022-12-25T19:54:05.480Z,8.60
2022-12-25T19:56:33.726Z,8.60
2022-12-25T19:59:01.195Z,8.60
2022-12-25T20:01:29.833Z,8.50
2022-12-25T20:03:57.659Z,8.50
2022-12-25T20:06:32.346Z,8.60
2022-12-25T20:09:10.631Z,8.50
2022-12-25T20:11:39.135Z,8.50
2022-12-25T20:14:08.412Z,8.50
2022-12-25T20:16:40.231Z,8.50
2022-12-25T20:19:08.103Z,8.50
2022-12-25T20:21:35.397Z,8.50
2022-12-25T20:24:02.588Z,8.50
2022-12-25T20:26:31.899Z,8.50
2022-12-25T20:28:59.678Z,8.50
2022-12-25T20:31:32.794Z,8.50
2022-12-25T20:34:05.542Z,8.50
2022-12-25T20:36:37.769Z,8.50
2022-12-25T20:39:11.485Z,8.50
2022-12-25T20:41:39.756Z,8.50
2022-12-25T20:44:10.429Z,8.50
2022-12-25T20:46:37.931Z,8.50
2022-12-25T20:49:05.396Z,8.50
2022-12-25T20:51:35.287Z,8.50
2022-12-25T20:54:07.632Z,8.50
2022-12-25T20:56:34.938Z,8.50
2022-12-25T20:59:02.441Z,8.50
2022-12-25T21:01:31.235Z,8.50
2022-12-25T21:03:59.655Z,8.50
2022-12-25T21:06:27.021Z,8.50
2022-12-25T21:08:54.409Z,8.50
2022-12-25T21:11:21.990Z,8.50
2022-12-25T21:13:49.839Z,8.50
2022-12-25T21:16:21.482Z,8.50
2022-12-25T21:18:53.249Z,8.50
2022-12-25T21:21:21.504Z,8.50
2022-12-25T21:23:48.988Z,8.50
2022-12-25T21:26:20.182Z,8.50
2022-12-25T21:28:55.044Z,8.50
2022-12-25T21:31:22.904Z,8.50
2022-12-25T21:33:54.023Z,8.50
2022-12-25T21:36:29.601Z,8.50
2022-12-25T21:39:07.149Z,8.50
2022-12-25T21:41:37.293Z,8.50
2022-12-25T21:44:05.446Z,8.50
2022-12-25T21:46:32.735Z,8.50
2022-12-25T21:49:00.827Z,8.50
2022-12-25T21:51:50.557Z,8.40
2022-12-25T21:54:20.564Z,8.40
2022-12-25T21:56:49.508Z,8.40
2022-12-25T21:59:21.959Z,8.40
2022-12-25T22:01:50.800Z,8.40
2022-12-25T22:04:20.785Z,8.40
2022-12-25T22:07:07.194Z,8.40
2022-12-25T22:09:34.952Z,8.40
2022-12-25T22:12:21.283Z,8.40
2022-12-25T22:14:56.769Z,8.30
2022-12-25T22:17:53.492Z,8.30
2022-12-25T22:20:33.611Z,8.30
2022-12-25T22:23:00.838Z,8.30
2022-12-25T22:25:28.197Z,8.30
2022-12-25T22:27:55.839Z,8.30
2022-12-25T22:30:28.798Z,8.30
2022-12-25T22:32:56.565Z,8.30
2022-12-25T22:35:24.662Z,8.20
2022-12-25T22:37:53.439Z,8.30
2022-12-25T22:40:21.095Z,8.20
2022-12-25T22:42:48.414Z,8.20
2022-12-25T22:45:15.750Z,8.20
2022-12-25T22:47:43.012Z,8.20
2022-12-25T22:50:14.628Z,8.20
2022-12-25T22:52:42.284Z,8.20
2022-12-25T22:55:10.305Z,8.20
2022-12-25T22:57:37.701Z,8.20
2022-12-25T23:00:08.960Z,8.20
2022-12-25T23:02:36.552Z,8.20
2022-12-25T23:05:05.403Z,8.20
2022-12-25T23:07:32.689Z,8.20
2022-12-25T23:09:59.679Z,8.20
2022-12-25T23:12:45.220Z,8.20
2022-12-25T23:15:12.421Z,8.10
2022-12-25T23:17:58.240Z,8.20
2022-12-25T23:20:44.218Z,8.20
2022-12-25T23:23:35.119Z,8.20
2022-12-25T23:26:09.877Z,8.20
2022-12-25T23:28:58.555Z,8.10
2022-12-25T23:31:39.498Z,8.10
2022-12-25T23:34:07.346Z,8.20
2022-12-25T23:36:35.149Z,8.20
2022-12-25T23:39:09.058Z,8.20
2022-12-25T23:41:42.086Z,8.20
2022-12-25T23:44:13.557Z,8.20
2022-12-25T23:46:41.720Z,8.20
2022-12-25T23:49:21.283Z,8.20
2022-12-25T23:51:48.616Z,8.20
2022-12-25T23:54:20.851Z,8.20
2022-12-25T23:56:49.381Z,8.20
2022-12-25T23:59:17.165Z,8.20
